sensor_id;sensor_type;location;lat;lon;timestamp;pressure;altitude;pressure_sealevel;temperature;humidity
11172;BME280;5642;50.830;12.082;2024-01-30T00:01:29;100840.06;;;6.31;38.65
11172;BME280;5642;50.830;12.082;2024-01-30T00:04:15;100881.03;;;6.53;38.80
11172;BME280;5642;50.830;12.082;2024-01-30T00:06:45;100870.63;;;6.54;38.45
11172;BME280;5642;50.830;12.082;2024-01-30T00:09:14;100901.16;;;6.72;38.73
11172;BME280;5642;50.830;12.082;2024-01-30T00:11:50;100890.72;;;6.72;38.32
11172;BME280;5642;50.830;12.082;2024-01-30T00:14:19;100880.31;;;6.75;38.02
11172;BME280;5642;50.830;12.082;2024-01-30T00:16:46;100897.81;;;6.88;38.48
11172;BME280;5642;50.830;12.082;2024-01-30T00:19:33;100848.09;;;6.61;38.23
11172;BME280;5642;50.830;12.082;2024-01-30T00:22:19;100902.19;;;6.95;38.28
11172;BME280;5642;50.830;12.082;2024-01-30T00:24:47;100823.75;;;6.51;38.21
11172;BME280;5642;50.830;12.082;2024-01-30T00:27:14;100844.69;;;6.66;38.02
11172;BME280;5642;50.830;12.082;2024-01-30T00:29:42;100876.09;;;6.86;38.36
11172;BME280;5642;50.830;12.082;2024-01-30T00:32:10;100898.78;;;7.05;37.79
11172;BME280;5642;50.830;12.082;2024-01-30T00:34:41;100878.69;;;6.91;38.41
11172;BME280;5642;50.830;12.082;2024-01-30T00:37:08;100892.69;;;7.00;38.30
11172;BME280;5642;50.830;12.082;2024-01-30T00:39:35;100904.00;;;7.02;38.36
11172;BME280;5642;50.830;12.082;2024-01-30T00:42:12;100882.22;;;6.94;38.07
11172;BME280;5642;50.830;12.082;2024-01-30T00:44:55;100888.31;;;6.98;38.24
11172;BME280;5642;50.830;12.082;2024-01-30T00:47:34;100895.25;;;6.97;38.40
11172;BME280;5642;50.830;12.082;2024-01-30T00:50:05;100853.44;;;6.76;38.46
11172;BME280;5642;50.830;12.082;2024-01-30T00:52:57;100877.78;;;6.84;37.86
11172;BME280;5642;50.830;12.082;2024-01-30T00:55:38;100876.91;;;6.84;38.48
11172;BME280;5642;50.830;12.082;2024-01-30T00:58:07;100899.59;;;6.97;38.10
11172;BME280;5642;50.830;12.082;2024-01-30T01:00:35;100883.03;;;6.90;38.29
11172;BME280;5642;50.830;12.082;2024-01-30T01:06:18;100883.94;;;6.97;38.18
11172;BME280;5642;50.830;12.082;2024-01-30T01:09:06;100877.81;;;6.87;38.45
11172;BME280;5642;50.830;12.082;2024-01-30T01:11:33;100885.69;;;6.96;38.47
11172;BME280;5642;50.830;12.082;2024-01-30T01:14:23;100887.44;;;6.97;38.32
11172;BME280;5642;50.830;12.082;2024-01-30T01:16:51;100863.91;;;6.84;38.98
11172;BME280;5642;50.830;12.082;2024-01-30T01:19:20;100851.72;;;6.80;38.65
11172;BME280;5642;50.830;12.082;2024-01-30T01:21:48;100877.03;;;6.99;38.08
11172;BME280;5642;50.830;12.082;2024-01-30T01:24:14;100860.47;;;6.88;38.14
11172;BME280;5642;50.830;12.082;2024-01-30T01:26:58;100881.38;;;7.00;38.26
11172;BME280;5642;50.830;12.082;2024-01-30T01:29:40;100878.75;;;6.98;38.55
11172;BME280;5642;50.830;12.082;2024-01-30T01:32:29;100874.41;;;6.97;38.62
11172;BME280;5642;50.830;12.082;2024-01-30T01:34:55;100845.66;;;6.81;38.15
11172;BME280;5642;50.830;12.082;2024-01-30T01:37:24;100847.44;;;6.86;38.35
11172;BME280;5642;50.830;12.082;2024-01-30T01:39:56;100853.47;;;6.84;38.31
11172;BME280;5642;50.830;12.082;2024-01-30T01:42:38;100845.63;;;6.78;38.39
11172;BME280;5642;50.830;12.082;2024-01-30T01:45:34;100844.75;;;6.74;38.92
11172;BME280;5642;50.830;12.082;2024-01-30T01:48:18;100849.97;;;6.77;38.73
11172;BME280;5642;50.830;12.082;2024-01-30T01:50:46;100849.94;;;6.76;39.04
11172;BME280;5642;50.830;12.082;2024-01-30T01:53:14;100847.34;;;6.77;38.78
11172;BME280;5642;50.830;12.082;2024-01-30T01:55:43;100863.03;;;6.85;38.40
11172;BME280;5642;50.830;12.082;2024-01-30T01:58:09;100852.56;;;6.76;38.79
11172;BME280;5642;50.830;12.082;2024-01-30T02:00:41;100863.88;;;6.82;38.68
11172;BME280;5642;50.830;12.082;2024-01-30T02:03:10;100866.50;;;6.84;38.81
11172;BME280;5642;50.830;12.082;2024-01-30T02:05:41;100859.53;;;6.83;38.22
11172;BME280;5642;50.830;12.082;2024-01-30T02:08:12;100855.22;;;6.82;38.63
11172;BME280;5642;50.830;12.082;2024-01-30T02:10:38;100861.31;;;6.85;38.85
11172;BME280;5642;50.830;12.082;2024-01-30T02:13:07;100865.69;;;6.88;38.35
11172;BME280;5642;50.830;12.082;2024-01-30T02:15:35;100858.75;;;6.91;38.90
11172;BME280;5642;50.830;12.082;2024-01-30T02:18:05;100864.81;;;6.92;38.67
11172;BME280;5642;50.830;12.082;2024-01-30T02:21:04;100830.84;;;6.77;38.74
11172;BME280;5642;50.830;12.082;2024-01-30T02:23:33;100792.56;;;6.57;38.69
11172;BME280;5642;50.830;12.082;2024-01-30T02:26:01;100844.81;;;6.86;38.57
11172;BME280;5642;50.830;12.082;2024-01-30T02:28:41;100848.31;;;6.90;38.82
11172;BME280;5642;50.830;12.082;2024-01-30T02:31:09;100816.09;;;6.74;38.39
11172;BME280;5642;50.830;12.082;2024-01-30T02:33:50;100806.50;;;6.68;38.59
11172;BME280;5642;50.830;12.082;2024-01-30T02:36:26;100850.09;;;6.94;38.64
11172;BME280;5642;50.830;12.082;2024-01-30T02:38:55;100854.50;;;7.08;38.92
11172;BME280;5642;50.830;12.082;2024-01-30T02:41:41;100810.06;;;6.80;38.45
11172;BME280;5642;50.830;12.082;2024-01-30T02:44:26;100850.13;;;7.00;38.63
11172;BME280;5642;50.830;12.082;2024-01-30T02:46:55;100847.53;;;7.01;38.91
11172;BME280;5642;50.830;12.082;2024-01-30T02:49:22;100859.69;;;7.04;38.90
11172;BME280;5642;50.830;12.082;2024-01-30T02:52:18;100858.81;;;7.02;39.00
11172;BME280;5642;50.830;12.082;2024-01-30T02:55:02;100858.78;;;6.97;38.80
11172;BME280;5642;50.830;12.082;2024-01-30T02:57:52;100837.00;;;6.85;38.56
11172;BME280;5642;50.830;12.082;2024-01-30T03:00:38;100844.81;;;6.89;38.66
11172;BME280;5642;50.830;12.082;2024-01-30T03:03:09;100835.25;;;6.81;38.88
11172;BME280;5642;50.830;12.082;2024-01-30T03:05:37;100847.44;;;6.89;38.78
11172;BME280;5642;50.830;12.082;2024-01-30T03:08:18;100803.84;;;6.62;39.00
11172;BME280;5642;50.830;12.082;2024-01-30T03:10:55;100846.53;;;6.81;39.15
11172;BME280;5642;50.830;12.082;2024-01-30T03:13:38;100834.34;;;6.74;39.01
11172;BME280;5642;50.830;12.082;2024-01-30T03:16:13;100839.53;;;6.76;38.61
11172;BME280;5642;50.830;12.082;2024-01-30T03:18:42;100807.28;;;6.52;38.99
11172;BME280;5642;50.830;12.082;2024-01-30T03:21:09;100838.63;;;6.67;39.21
11172;BME280;5642;50.830;12.082;2024-01-30T03:23:38;100852.50;;;6.69;38.87
11172;BME280;5642;50.830;12.082;2024-01-30T03:26:23;100827.22;;;6.52;39.24
11172;BME280;5642;50.830;12.082;2024-01-30T03:28:49;100825.50;;;6.54;38.84
11172;BME280;5642;50.830;12.082;2024-01-30T03:31:28;100824.59;;;6.50;39.40
11172;BME280;5642;50.830;12.082;2024-01-30T03:33:54;100835.94;;;6.57;39.04
11172;BME280;5642;50.830;12.082;2024-01-30T03:36:29;100812.41;;;6.43;39.53
11172;BME280;5642;50.830;12.082;2024-01-30T03:39:00;100834.16;;;6.51;39.45
11172;BME280;5642;50.830;12.082;2024-01-30T03:41:27;100841.97;;;6.50;39.52
11172;BME280;5642;50.830;12.082;2024-01-30T03:44:04;100812.31;;;6.31;39.34
11172;BME280;5642;50.830;12.082;2024-01-30T03:46:30;100820.09;;;6.29;39.39
11172;BME280;5642;50.830;12.082;2024-01-30T03:48:57;100829.78;;;6.44;39.20
11172;BME280;5642;50.830;12.082;2024-01-30T03:51:41;100820.13;;;6.34;39.14
11172;BME280;5642;50.830;12.082;2024-01-30T03:54:25;100830.59;;;6.42;39.27
11172;BME280;5642;50.830;12.082;2024-01-30T03:56:53;100816.69;;;6.35;39.40
11172;BME280;5642;50.830;12.082;2024-01-30T03:59:37;100773.97;;;6.09;39.13
11172;BME280;5642;50.830;12.082;2024-01-30T04:02:25;100828.88;;;6.42;39.28
11172;BME280;5642;50.830;12.082;2024-01-30T04:05:11;100823.66;;;6.39;39.29
11172;BME280;5642;50.830;12.082;2024-01-30T04:07:54;100825.41;;;6.42;39.27
11172;BME280;5642;50.830;12.082;2024-01-30T04:10:22;100826.28;;;6.44;39.06
11172;BME280;5642;50.830;12.082;2024-01-30T04:12:51;100818.47;;;6.42;39.34
11172;BME280;5642;50.830;12.082;2024-01-30T04:15:33;100820.22;;;6.43;39.06
11172;BME280;5642;50.830;12.082;2024-01-30T04:18:20;100815.00;;;6.43;39.33
11172;BME280;5642;50.830;12.082;2024-01-30T04:20:49;100812.44;;;6.45;39.26
11172;BME280;5642;50.830;12.082;2024-01-30T04:23:17;100810.69;;;6.47;39.17
11172;BME280;5642;50.830;12.082;2024-01-30T04:26:05;100795.06;;;6.44;39.06
11172;BME280;5642;50.830;12.082;2024-01-30T04:28:54;100792.44;;;6.42;39.24
11172;BME280;5642;50.830;12.082;2024-01-30T04:31:44;100787.22;;;6.38;38.97
11172;BME280;5642;50.830;12.082;2024-01-30T04:34:47;100803.69;;;6.38;39.28
11172;BME280;5642;50.830;12.082;2024-01-30T04:37:29;100790.59;;;6.24;39.23
11172;BME280;5642;50.830;12.082;2024-01-30T04:39:58;100808.88;;;6.35;39.59
11172;BME280;5642;50.830;12.082;2024-01-30T04:42:34;100744.34;;;5.93;39.55
11172;BME280;5642;50.830;12.082;2024-01-30T04:45:17;100742.59;;;5.89;39.06
11172;BME280;5642;50.830;12.082;2024-01-30T04:47:44;100803.59;;;6.26;39.47
11172;BME280;5642;50.830;12.082;2024-01-30T04:50:16;100813.13;;;6.25;39.47
11172;BME280;5642;50.830;12.082;2024-01-30T04:52:42;100806.25;;;6.32;39.49
11172;BME280;5642;50.830;12.082;2024-01-30T04:55:10;100790.59;;;6.24;39.50
11172;BME280;5642;50.830;12.082;2024-01-30T04:57:37;100805.41;;;6.35;38.88
11172;BME280;5642;50.830;12.082;2024-01-30T05:00:06;100803.69;;;6.37;38.94
11172;BME280;5642;50.830;12.082;2024-01-30T05:02:41;100795.88;;;6.37;38.97
11172;BME280;5642;50.830;12.082;2024-01-30T05:05:08;100801.06;;;6.32;38.88
11172;BME280;5642;50.830;12.082;2024-01-30T05:07:41;100814.97;;;6.40;39.04
11172;BME280;5642;50.830;12.082;2024-01-30T05:10:10;100805.38;;;6.30;39.63
11172;BME280;5642;50.830;12.082;2024-01-30T05:12:46;100806.19;;;6.24;38.94
11172;BME280;5642;50.830;12.082;2024-01-30T05:15:14;100820.13;;;6.33;39.56
11172;BME280;5642;50.830;12.082;2024-01-30T05:17:42;100779.19;;;6.12;39.37
11172;BME280;5642;50.830;12.082;2024-01-30T05:20:19;100766.13;;;6.03;39.88
11172;BME280;5642;50.830;12.082;2024-01-30T05:23:03;100815.75;;;6.27;39.09
11172;BME280;5642;50.830;12.082;2024-01-30T05:25:33;100813.09;;;6.21;39.49
11172;BME280;5642;50.830;12.082;2024-01-30T05:28:26;100732.03;;;5.74;39.82
11172;BME280;5642;50.830;12.082;2024-01-30T05:30:53;100783.47;;;6.02;39.27
11172;BME280;5642;50.830;12.082;2024-01-30T05:33:38;100726.72;;;5.63;39.20
11172;BME280;5642;50.830;12.082;2024-01-30T05:36:07;100822.59;;;6.19;39.25
11172;BME280;5642;50.830;12.082;2024-01-30T05:38:34;100814.72;;;6.11;39.64
11172;BME280;5642;50.830;12.082;2024-01-30T05:41:20;100824.28;;;6.11;39.66
11172;BME280;5642;50.830;12.082;2024-01-30T05:43:58;100816.41;;;6.05;39.46
11172;BME280;5642;50.830;12.082;2024-01-30T05:46:47;100779.75;;;5.80;39.51
11172;BME280;5642;50.830;12.082;2024-01-30T05:49:20;100750.09;;;5.60;39.38
11172;BME280;5642;50.830;12.082;2024-01-30T05:51:59;100797.19;;;5.87;39.76
11172;BME280;5642;50.830;12.082;2024-01-30T05:54:55;100759.59;;;5.58;39.93
11172;BME280;5642;50.830;12.082;2024-01-30T05:57:22;100748.28;;;5.51;39.43
11172;BME280;5642;50.830;12.082;2024-01-30T05:59:50;100803.19;;;5.85;39.62
11172;BME280;5642;50.830;12.082;2024-01-30T06:02:19;100744.94;;;5.65;39.83
11172;BME280;5642;50.830;12.082;2024-01-30T06:04:47;100760.59;;;5.72;39.41
11172;BME280;5642;50.830;12.082;2024-01-30T06:07:15;100806.84;;;6.01;39.41
11172;BME280;5642;50.830;12.082;2024-01-30T06:10:01;100727.44;;;5.47;39.82
11172;BME280;5642;50.830;12.082;2024-01-30T06:12:37;100768.34;;;5.69;39.64
11172;BME280;5642;50.830;12.082;2024-01-30T06:15:12;100746.63;;;5.63;39.44
11172;BME280;5642;50.830;12.082;2024-01-30T06:17:39;100800.78;;;6.00;39.26
11172;BME280;5642;50.830;12.082;2024-01-30T06:20:23;100791.13;;;5.88;39.36
11172;BME280;5642;50.830;12.082;2024-01-30T06:22:53;100805.16;;;6.06;39.71
11172;BME280;5642;50.830;12.082;2024-01-30T06:25:34;100802.63;;;6.13;39.48
11172;BME280;5642;50.830;12.082;2024-01-30T06:28:12;100723.44;;;5.84;39.14
11172;BME280;5642;50.830;12.082;2024-01-30T06:31:01;100743.53;;;5.99;39.14
11172;BME280;5642;50.830;12.082;2024-01-30T06:33:27;100726.09;;;5.90;39.04
11172;BME280;5642;50.830;12.082;2024-01-30T06:35:53;100782.81;;;6.31;39.37
11172;BME280;5642;50.830;12.082;2024-01-30T06:38:19;100720.16;;;6.02;39.25
11172;BME280;5642;50.830;12.082;2024-01-30T06:40:59;100811.63;;;6.56;38.98
11172;BME280;5642;50.830;12.082;2024-01-30T06:43:25;100785.59;;;6.53;39.32
11172;BME280;5642;50.830;12.082;2024-01-30T06:46:00;100753.41;;;6.44;39.39
11172;BME280;5642;50.830;12.082;2024-01-30T06:48:43;100763.03;;;6.57;39.64
11172;BME280;5642;50.830;12.082;2024-01-30T06:51:33;100772.66;;;6.70;39.01
11172;BME280;5642;50.830;12.082;2024-01-30T06:54:12;100734.38;;;6.52;39.46
11172;BME280;5642;50.830;12.082;2024-01-30T06:56:45;100799.66;;;6.86;39.15
11172;BME280;5642;50.830;12.082;2024-01-30T07:02:21;100737.03;;;6.58;39.62
11172;BME280;5642;50.830;12.082;2024-01-30T07:05:10;100813.69;;;7.11;39.26
11172;BME280;5642;50.830;12.082;2024-01-30T07:08:08;100720.50;;;6.53;38.97
11172;BME280;5642;50.830;12.082;2024-01-30T07:10:52;100712.69;;;6.53;39.49
11172;BME280;5642;50.830;12.082;2024-01-30T07:13:49;100718.84;;;6.66;39.48
11172;BME280;5642;50.830;12.082;2024-01-30T07:16:26;100696.22;;;6.57;39.48
11172;BME280;5642;50.830;12.082;2024-01-30T07:19:06;100709.31;;;6.77;38.80
11172;BME280;5642;50.830;12.082;2024-01-30T07:21:55;100753.75;;;7.11;39.25
11172;BME280;5642;50.830;12.082;2024-01-30T07:24:42;100714.66;;;7.04;38.75
11172;BME280;5642;50.830;12.082;2024-01-30T07:27:21;100752.13;;;7.43;38.96
11172;BME280;5642;50.830;12.082;2024-01-30T07:29:55;100809.59;;;7.96;38.96
11172;BME280;5642;50.830;12.082;2024-01-30T07:33:05;100812.22;;;8.05;38.95
11172;BME280;5642;50.830;12.082;2024-01-30T07:35:56;100752.19;;;7.79;38.63
11172;BME280;5642;50.830;12.082;2024-01-30T07:39:06;100809.63;;;8.20;38.85
11172;BME280;5642;50.830;12.082;2024-01-30T07:42:16;100703.47;;;7.60;38.91
11172;BME280;5642;50.830;12.082;2024-01-30T07:45:26;100720.88;;;7.82;38.89
11172;BME280;5642;50.830;12.082;2024-01-30T07:48:50;100738.28;;;8.05;38.58
11172;BME280;5642;50.830;12.082;2024-01-30T07:57:44;100747.00;;;8.16;38.62
11172;BME280;5642;50.830;12.082;2024-01-30T08:00:45;100729.59;;;8.21;39.01
11172;BME280;5642;50.830;12.082;2024-01-30T08:03:53;100735.69;;;8.43;38.56
11172;BME280;5642;50.830;12.082;2024-01-30T08:07:15;100808.69;;;9.02;38.54
11172;BME280;5642;50.830;12.082;2024-01-30T08:10:37;100741.72;;;8.71;38.64
11172;BME280;5642;50.830;12.082;2024-01-30T08:31:34;100722.28;;;9.35;38.44
11172;BME280;5642;50.830;12.082;2024-01-30T08:34:13;100742.16;;;9.64;38.15
11172;BME280;5642;50.830;12.082;2024-01-30T08:36:51;100708.22;;;9.52;38.16
11172;BME280;5642;50.830;12.082;2024-01-30T08:39:46;100679.47;;;9.46;38.05
11172;BME280;5642;50.830;12.082;2024-01-30T08:42:24;100707.22;;;9.71;38.07
11172;BME280;5642;50.830;12.082;2024-01-30T08:44:55;100728.88;;;9.90;37.88
11172;BME280;5642;50.830;12.082;2024-01-30T08:47:25;100747.00;;;10.14;38.17
11172;BME280;5642;50.830;12.082;2024-01-30T08:50:10;100715.59;;;10.11;38.17
11172;BME280;5642;50.830;12.082;2024-01-30T08:53:08;100792.81;;;10.67;37.79
11172;BME280;5642;50.830;12.082;2024-01-30T08:55:37;100700.66;;;10.25;37.93
11172;BME280;5642;50.830;12.082;2024-01-30T08:58:07;100711.81;;;10.45;37.84
11172;BME280;5642;50.830;12.082;2024-01-30T09:00:36;100770.72;;;10.92;37.92
11172;BME280;5642;50.830;12.082;2024-01-30T09:03:04;100721.91;;;10.80;37.50
11172;BME280;5642;50.830;12.082;2024-01-30T09:05:40;100793.72;;;11.42;37.48
11172;BME280;5642;50.830;12.082;2024-01-30T09:08:14;100773.59;;;11.43;37.40
11172;BME280;5642;50.830;12.082;2024-01-30T09:10:47;100767.31;;;11.53;37.71
11172;BME280;5642;50.830;12.082;2024-01-30T09:13:15;100791.53;;;11.76;37.68
11172;BME280;5642;50.830;12.082;2024-01-30T09:15:47;100675.13;;;11.16;37.40
11172;BME280;5642;50.830;12.082;2024-01-30T09:18:18;100732.22;;;11.58;37.55
11172;BME280;5642;50.830;12.082;2024-01-30T09:20:52;100798.06;;;12.06;37.24
11172;BME280;5642;50.830;12.082;2024-01-30T09:23:21;100756.19;;;11.97;37.17
11172;BME280;5642;50.830;12.082;2024-01-30T09:25:51;100739.34;;;12.08;37.20
11172;BME280;5642;50.830;12.082;2024-01-30T09:28:18;100740.03;;;12.21;37.19
11172;BME280;5642;50.830;12.082;2024-01-30T09:30:48;100765.63;;;12.59;36.96
11172;BME280;5642;50.830;12.082;2024-01-30T09:33:15;100728.09;;;12.51;37.04
11172;BME280;5642;50.830;12.082;2024-01-30T09:35:51;100790.38;;;12.95;37.02
11172;BME280;5642;50.830;12.082;2024-01-30T09:38:23;100780.53;;;13.06;37.25
11172;BME280;5642;50.830;12.082;2024-01-30T09:40:54;100786.44;;;13.17;37.30
11172;BME280;5642;50.830;12.082;2024-01-30T09:43:31;100783.66;;;13.25;37.33
11172;BME280;5642;50.830;12.082;2024-01-30T09:46:05;100787.03;;;13.31;37.21
11172;BME280;5642;50.830;12.082;2024-01-30T09:48:36;100693.22;;;12.86;37.39
11172;BME280;5642;50.830;12.082;2024-01-30T09:51:07;100717.28;;;13.11;37.11
11172;BME280;5642;50.830;12.082;2024-01-30T09:53:37;100740.53;;;13.32;37.05
11172;BME280;5642;50.830;12.082;2024-01-30T09:56:12;100743.13;;;13.35;37.05
11172;BME280;5642;50.830;12.082;2024-01-30T09:58:52;100775.09;;;13.57;36.99
11172;BME280;5642;50.830;12.082;2024-01-30T10:01:19;100737.00;;;13.33;36.98
11172;BME280;5642;50.830;12.082;2024-01-30T10:03:52;100756.13;;;13.41;37.03
11172;BME280;5642;50.830;12.082;2024-01-30T10:06:18;100750.19;;;13.31;36.97
11172;BME280;5642;50.830;12.082;2024-01-30T10:08:49;100707.00;;;13.00;37.15
11172;BME280;5642;50.830;12.082;2024-01-30T10:11:35;100753.84;;;13.26;37.06
11172;BME280;5642;50.830;12.082;2024-01-30T10:14:04;100748.69;;;13.20;37.01
11172;BME280;5642;50.830;12.082;2024-01-30T10:16:34;100773.72;;;13.39;37.11
11172;BME280;5642;50.830;12.082;2024-01-30T10:19:02;100746.81;;;13.26;36.91
11172;BME280;5642;50.830;12.082;2024-01-30T10:21:33;100739.81;;;13.25;37.06
11172;BME280;5642;50.830;12.082;2024-01-30T10:24:10;100666.88;;;12.90;37.12
11172;BME280;5642;50.830;12.082;2024-01-30T10:26:56;100748.16;;;13.44;37.00
11172;BME280;5642;50.830;12.082;2024-01-30T10:29:23;100697.75;;;13.22;36.78
11172;BME280;5642;50.830;12.082;2024-01-30T10:34:41;100650.63;;;13.13;36.91
11172;BME280;5642;50.830;12.082;2024-01-30T10:37:17;100655.75;;;13.19;36.91
11172;BME280;5642;50.830;12.082;2024-01-30T10:39:53;100750.84;;;13.80;37.00
11172;BME280;5642;50.830;12.082;2024-01-30T10:42:26;100683.63;;;13.65;36.80
11172;BME280;5642;50.830;12.082;2024-01-30T10:45:16;100691.16;;;14.14;36.79
11172;BME280;5642;50.830;12.082;2024-01-30T10:48:05;100738.69;;;14.79;36.73
11172;BME280;5642;50.830;12.082;2024-01-30T10:50:40;100727.97;;;15.14;36.62
11172;BME280;5642;50.830;12.082;2024-01-30T10:53:32;100735.16;;;15.40;36.41
11172;BME280;5642;50.830;12.082;2024-01-30T10:56:01;100661.47;;;15.03;36.45
11172;BME280;5642;50.830;12.082;2024-01-30T10:58:40;100718.72;;;15.60;36.53
11172;BME280;5642;50.830;12.082;2024-01-30T11:01:11;100728.97;;;15.97;36.40
11172;BME280;5642;50.830;12.082;2024-01-30T11:03:39;100710.41;;;16.25;36.34
11172;BME280;5642;50.830;12.082;2024-01-30T11:06:05;100645.34;;;16.45;36.32
11172;BME280;5642;50.830;12.082;2024-01-30T11:08:40;100679.41;;;17.03;36.46
11172;BME280;5642;50.830;12.082;2024-01-30T11:11:10;100630.34;;;17.16;36.23
11172;BME280;5642;50.830;12.082;2024-01-30T11:13:38;100652.59;;;17.77;36.19
11172;BME280;5642;50.830;12.082;2024-01-30T11:16:06;100626.47;;;18.10;36.22
11172;BME280;5642;50.830;12.082;2024-01-30T11:18:39;100637.91;;;18.71;36.20
11172;BME280;5642;50.830;12.082;2024-01-30T11:21:13;100622.34;;;19.20;36.11
11172;BME280;5642;50.830;12.082;2024-01-30T11:23:39;100657.31;;;19.67;35.94
11172;BME280;5642;50.830;12.082;2024-01-30T11:26:06;100651.91;;;19.86;36.09
11172;BME280;5642;50.830;12.082;2024-01-30T11:28:34;100687.31;;;20.22;36.01
11172;BME280;5642;50.830;12.082;2024-01-30T11:31:18;100633.38;;;19.84;35.91
11172;BME280;5642;50.830;12.082;2024-01-30T11:33:45;100675.94;;;20.19;35.96
11172;BME280;5642;50.830;12.082;2024-01-30T11:36:13;100618.03;;;19.72;36.07
11172;BME280;5642;50.830;12.082;2024-01-30T11:38:44;100695.81;;;19.94;36.11
11172;BME280;5642;50.830;12.082;2024-01-30T11:41:15;100623.56;;;19.13;35.88
11172;BME280;5642;50.830;12.082;2024-01-30T11:43:53;100653.25;;;19.04;35.94
11172;BME280;5642;50.830;12.082;2024-01-30T11:46:25;100638.31;;;18.83;35.86
11172;BME280;5642;50.830;12.082;2024-01-30T11:48:54;100607.78;;;18.72;35.85
11172;BME280;5642;50.830;12.082;2024-01-30T11:51:20;100615.63;;;18.75;35.78
11172;BME280;5642;50.830;12.082;2024-01-30T11:53:49;100688.91;;;19.36;35.42
11172;BME280;5642;50.830;12.082;2024-01-30T11:56:38;100655.53;;;19.49;35.17
11172;BME280;5642;50.830;12.082;2024-01-30T11:59:09;100610.63;;;19.43;35.07
11172;BME280;5642;50.830;12.082;2024-01-30T12:01:39;100623.50;;;19.52;34.73
11172;BME280;5642;50.830;12.082;2024-01-30T12:04:10;100652.84;;;19.49;34.56
11172;BME280;5642;50.830;12.082;2024-01-30T12:06:40;100600.50;;;18.96;34.75
11172;BME280;5642;50.830;12.082;2024-01-30T12:09:06;100593.59;;;18.73;34.52
11172;BME280;5642;50.830;12.082;2024-01-30T12:11:45;100575.09;;;18.52;34.46
11172;BME280;5642;50.830;12.082;2024-01-30T12:14:12;100590.84;;;18.36;34.58
11172;BME280;5642;50.830;12.082;2024-01-30T12:16:39;100656.84;;;18.44;34.75
11172;BME280;5642;50.830;12.082;2024-01-30T12:19:09;100576.06;;;17.70;34.82
11172;BME280;5642;50.830;12.082;2024-01-30T12:21:38;100566.34;;;17.48;34.88
11172;BME280;5642;50.830;12.082;2024-01-30T12:24:06;100634.19;;;17.74;34.99
11172;BME280;5642;50.830;12.082;2024-01-30T12:26:33;100637.44;;;17.59;35.12
11172;BME280;5642;50.830;12.082;2024-01-30T12:29:04;100656.25;;;17.53;35.10
11172;BME280;5642;50.830;12.082;2024-01-30T12:31:36;100568.13;;;16.82;35.35
11172;BME280;5642;50.830;12.082;2024-01-30T12:34:02;100634.78;;;17.15;35.46
11172;BME280;5642;50.830;12.082;2024-01-30T12:36:29;100586.66;;;16.82;35.42
11172;BME280;5642;50.830;12.082;2024-01-30T12:38:57;100632.66;;;17.02;35.43
11172;BME280;5642;50.830;12.082;2024-01-30T12:41:42;100571.16;;;16.49;35.42
11172;BME280;5642;50.830;12.082;2024-01-30T12:44:08;100578.16;;;16.50;35.55
11172;BME280;5642;50.830;12.082;2024-01-30T12:46:39;100556.19;;;16.24;35.55
11172;BME280;5642;50.830;12.082;2024-01-30T12:49:12;100624.91;;;16.49;35.79
11172;BME280;5642;50.830;12.082;2024-01-30T12:51:38;100579.41;;;16.16;35.59
11172;BME280;5642;50.830;12.082;2024-01-30T12:54:12;100603.78;;;16.24;35.77
11172;BME280;5642;50.830;12.082;2024-01-30T12:56:44;100621.59;;;16.19;35.84
11172;BME280;5642;50.830;12.082;2024-01-30T12:59:30;100561.53;;;15.73;35.98
11172;BME280;5642;50.830;12.082;2024-01-30T13:02:00;100631.59;;;16.11;36.02
11172;BME280;5642;50.830;12.082;2024-01-30T13:04:27;100529.13;;;15.42;36.05
11172;BME280;5642;50.830;12.082;2024-01-30T13:07:00;100546.59;;;15.46;35.74
11172;BME280;5642;50.830;12.082;2024-01-30T13:09:32;100559.69;;;15.49;35.84
11172;BME280;5642;50.830;12.082;2024-01-30T13:12:06;100635.00;;;15.88;35.80
11172;BME280;5642;50.830;12.082;2024-01-30T13:14:39;100573.66;;;15.54;35.98
11172;BME280;5642;50.830;12.082;2024-01-30T13:17:12;100545.13;;;15.37;35.91
11172;BME280;5642;50.830;12.082;2024-01-30T13:19:41;100533.94;;;15.29;36.05
11172;BME280;5642;50.830;12.082;2024-01-30T13:22:15;100542.78;;;15.28;35.98
11172;BME280;5642;50.830;12.082;2024-01-30T13:24:50;100545.16;;;15.36;36.09
11172;BME280;5642;50.830;12.082;2024-01-30T13:27:37;100606.56;;;15.70;36.11
11172;BME280;5642;50.830;12.082;2024-01-30T13:30:11;100548.59;;;15.39;36.30
11172;BME280;5642;50.830;12.082;2024-01-30T13:32:38;100524.31;;;15.28;36.29
11172;BME280;5642;50.830;12.082;2024-01-30T13:35:07;100589.94;;;15.66;36.30
11172;BME280;5642;50.830;12.082;2024-01-30T13:37:41;100557.38;;;15.40;36.27
11172;BME280;5642;50.830;12.082;2024-01-30T13:40:09;100590.19;;;15.59;36.25
11172;BME280;5642;50.830;12.082;2024-01-30T13:42:36;100554.00;;;15.35;36.13
11172;BME280;5642;50.830;12.082;2024-01-30T13:45:03;100623.38;;;15.68;36.39
11172;BME280;5642;50.830;12.082;2024-01-30T13:48:07;100550.13;;;15.20;36.28
11172;BME280;5642;50.830;12.082;2024-01-30T13:50:43;100536.53;;;15.04;36.33
11172;BME280;5642;50.830;12.082;2024-01-30T13:53:15;100617.75;;;15.50;36.39
11172;BME280;5642;50.830;12.082;2024-01-30T13:55:46;100546.06;;;15.08;36.51
11172;BME280;5642;50.830;12.082;2024-01-30T13:58:13;100539.47;;;14.95;36.49
11172;BME280;5642;50.830;12.082;2024-01-30T14:00:46;100614.59;;;15.39;36.56
11172;BME280;5642;50.830;12.082;2024-01-30T14:03:20;100555.13;;;15.00;36.45
11172;BME280;5642;50.830;12.082;2024-01-30T14:05:49;100529.38;;;14.80;36.55
11172;BME280;5642;50.830;12.082;2024-01-30T14:08:16;100606.44;;;15.19;36.48
11172;BME280;5642;50.830;12.082;2024-01-30T14:10:46;100609.16;;;15.16;36.56
11172;BME280;5642;50.830;12.082;2024-01-30T14:13:24;100619.09;;;15.08;36.52